VLG3WM LEBL-LEMH
Flight info
| Callsign | VLG3WM |
|---|---|
| Flight time | 0h 30m |
| Altitude | 19000 |
| Route | DUNES Q700 SARGO |
| Aircraft | A20N/M-SDFGHILORVWXY/LB1 |
Departure
| Time | 2026-04-10 11:16 |
|---|---|
| Airport | Josep Tarradellas Barcelona-El Prat Airport (LEBL) |
Arrival
| Time | 2026-04-10 11:46 |
|---|---|
| Airport | Menorca Airport (LEMH) |
| Time | Latitude | Longitude | Altitude | Speed | Heading |
|---|---|---|---|---|---|
| 2026-04-10 10:46 | 41.29240 | 2.08209 | 16 ft | 0 kts | 183° |
| 2026-04-10 11:00 | 41.29249 | 2.08209 | 16 ft | 2 kts | 182° |
| 2026-04-10 11:00 | 41.29264 | 2.08210 | 17 ft | 2 kts | 183° |
| 2026-04-10 11:00 | 41.29279 | 2.08211 | 17 ft | 2 kts | 182° |
| 2026-04-10 11:00 | 41.29294 | 2.08212 | 17 ft | 1 kts | 183° |
| 2026-04-10 11:01 | 41.29304 | 2.08213 | 17 ft | 2 kts | 161° |
| 2026-04-10 11:01 | 41.29316 | 2.08201 | 18 ft | 2 kts | 122° |
| 2026-04-10 11:01 | 41.29321 | 2.08181 | 18 ft | 2 kts | 83° |
| 2026-04-10 11:01 | 41.29319 | 2.08171 | 18 ft | 1 kts | 62° |
| 2026-04-10 11:02 | 41.29316 | 2.08165 | 18 ft | 0 kts | 66° |
| 2026-04-10 11:05 | 41.29317 | 2.08166 | 18 ft | 0 kts | 66° |
| 2026-04-10 11:05 | 41.29322 | 2.08182 | 18 ft | 3 kts | 66° |
| 2026-04-10 11:05 | 41.29335 | 2.08220 | 18 ft | 5 kts | 65° |
| 2026-04-10 11:06 | 41.29355 | 2.08277 | 18 ft | 2 kts | 65° |
| 2026-04-10 11:06 | 41.29357 | 2.08284 | 18 ft | 0 kts | 65° |
| 2026-04-10 11:06 | 41.29369 | 2.08318 | 18 ft | 6 kts | 66° |
| 2026-04-10 11:06 | 41.29361 | 2.08381 | 17 ft | 9 kts | 139° |
| 2026-04-10 11:07 | 41.29297 | 2.08423 | 16 ft | 11 kts | 155° |
| 2026-04-10 11:07 | 41.29215 | 2.08473 | 15 ft | 13 kts | 156° |
| 2026-04-10 11:07 | 41.29125 | 2.08527 | 15 ft | 13 kts | 155° |
| 2026-04-10 11:07 | 41.29044 | 2.08575 | 17 ft | 12 kts | 154° |
| 2026-04-10 11:08 | 41.28966 | 2.08623 | 18 ft | 12 kts | 156° |
| 2026-04-10 11:08 | 41.28885 | 2.08672 | 18 ft | 12 kts | 154° |
| 2026-04-10 11:08 | 41.28876 | 2.08768 | 20 ft | 10 kts | 67° |
| 2026-04-10 11:08 | 41.28909 | 2.08864 | 20 ft | 11 kts | 66° |
| 2026-04-10 11:09 | 41.28941 | 2.08958 | 21 ft | 11 kts | 66° |
| 2026-04-10 11:09 | 41.28975 | 2.09057 | 21 ft | 12 kts | 65° |
| 2026-04-10 11:09 | 41.29013 | 2.09167 | 21 ft | 13 kts | 66° |
| 2026-04-10 11:09 | 41.29052 | 2.09282 | 22 ft | 13 kts | 65° |
| 2026-04-10 11:10 | 41.29092 | 2.09401 | 22 ft | 14 kts | 66° |
| 2026-04-10 11:10 | 41.29136 | 2.09529 | 22 ft | 15 kts | 65° |
| 2026-04-10 11:10 | 41.29181 | 2.09657 | 23 ft | 14 kts | 65° |
| 2026-04-10 11:10 | 41.29224 | 2.09783 | 23 ft | 15 kts | 65° |
| 2026-04-10 11:11 | 41.29263 | 2.09895 | 23 ft | 11 kts | 66° |
| 2026-04-10 11:11 | 41.29304 | 2.09982 | 24 ft | 10 kts | 65° |
| 2026-04-10 11:11 | 41.29337 | 2.10077 | 24 ft | 11 kts | 65° |
| 2026-04-10 11:11 | 41.29370 | 2.10182 | 24 ft | 12 kts | 77° |
| 2026-04-10 11:12 | 41.29330 | 2.10272 | 25 ft | 11 kts | 153° |
| 2026-04-10 11:12 | 41.29259 | 2.10313 | 27 ft | 10 kts | 166° |
| 2026-04-10 11:12 | 41.29200 | 2.10267 | 27 ft | 9 kts | 244° |
| 2026-04-10 11:12 | 41.29196 | 2.10256 | 27 ft | 0 kts | 246° |
| 2026-04-10 11:15 | 41.29190 | 2.10237 | 27 ft | 15 kts | 246° |
| 2026-04-10 11:15 | 41.29018 | 2.09734 | 27 ft | 101 kts | 245° |
| 2026-04-10 11:15 | 41.28627 | 2.08583 | 62 ft | 163 kts | 244° |
| 2026-04-10 11:16 | 41.28138 | 2.07241 | 774 ft | 164 kts | 238° |
| 2026-04-10 11:16 | 41.27429 | 2.06054 | 1504 ft | 172 kts | 223° |
| 2026-04-10 11:16 | 41.26411 | 2.05107 | 2139 ft | 188 kts | 206° |
| 2026-04-10 11:16 | 41.25124 | 2.04579 | 2726 ft | 205 kts | 188° |
| 2026-04-10 11:17 | 41.23666 | 2.04652 | 3361 ft | 219 kts | 168° |
| 2026-04-10 11:17 | 41.22174 | 2.05281 | 4053 ft | 233 kts | 163° |
| 2026-04-10 11:17 | 41.20611 | 2.05726 | 4922 ft | 231 kts | 178° |
| 2026-04-10 11:17 | 41.18995 | 2.05763 | 5542 ft | 233 kts | 182° |
| 2026-04-10 11:18 | 41.17382 | 2.05490 | 5898 ft | 235 kts | 193° |
| 2026-04-10 11:18 | 41.15690 | 2.05342 | 6291 ft | 259 kts | 168° |
| 2026-04-10 11:18 | 41.14095 | 2.06520 | 6909 ft | 277 kts | 132° |
| 2026-04-10 11:18 | 41.13176 | 2.08788 | 7659 ft | 286 kts | 107° |
| 2026-04-10 11:19 | 41.12600 | 2.11304 | 8441 ft | 294 kts | 106° |
| 2026-04-10 11:19 | 41.12013 | 2.13907 | 9257 ft | 301 kts | 106° |
| 2026-04-10 11:19 | 41.11393 | 2.16580 | 10058 ft | 307 kts | 106° |
| 2026-04-10 11:19 | 41.10743 | 2.19318 | 10792 ft | 315 kts | 107° |
| 2026-04-10 11:20 | 41.10071 | 2.22095 | 11492 ft | 323 kts | 107° |
| 2026-04-10 11:20 | 41.09384 | 2.24901 | 12318 ft | 326 kts | 107° |
| 2026-04-10 11:20 | 41.08678 | 2.27767 | 13145 ft | 330 kts | 108° |
| 2026-04-10 11:20 | 41.07959 | 2.30667 | 13956 ft | 333 kts | 108° |
| 2026-04-10 11:21 | 41.07236 | 2.33579 | 14719 ft | 336 kts | 108° |
| 2026-04-10 11:21 | 41.06505 | 2.36514 | 15518 ft | 339 kts | 108° |
| 2026-04-10 11:21 | 41.05769 | 2.39467 | 16278 ft | 341 kts | 108° |
| 2026-04-10 11:21 | 41.05030 | 2.42426 | 17022 ft | 344 kts | 108° |
| 2026-04-10 11:22 | 41.04274 | 2.45451 | 17725 ft | 347 kts | 108° |
| 2026-04-10 11:22 | 41.03516 | 2.48479 | 18413 ft | 350 kts | 108° |
| 2026-04-10 11:22 | 41.02750 | 2.51533 | 18870 ft | 353 kts | 108° |
| 2026-04-10 11:22 | 41.01975 | 2.54621 | 19084 ft | 355 kts | 108° |
| 2026-04-10 11:23 | 41.01195 | 2.57726 | 19072 ft | 354 kts | 108° |
| 2026-04-10 11:23 | 41.00414 | 2.60825 | 19074 ft | 355 kts | 108° |
| 2026-04-10 11:23 | 40.99635 | 2.63915 | 19085 ft | 355 kts | 108° |
| 2026-04-10 11:23 | 40.98844 | 2.67048 | 19084 ft | 355 kts | 109° |
| 2026-04-10 11:24 | 40.98071 | 2.70118 | 19080 ft | 355 kts | 108° |
| 2026-04-10 11:24 | 40.97287 | 2.73225 | 19085 ft | 355 kts | 108° |
| 2026-04-10 11:24 | 40.96500 | 2.76335 | 19083 ft | 355 kts | 108° |
| 2026-04-10 11:24 | 40.95713 | 2.79435 | 19083 ft | 355 kts | 108° |
| 2026-04-10 11:25 | 40.94924 | 2.82540 | 19085 ft | 355 kts | 108° |
| 2026-04-10 11:25 | 40.94136 | 2.85641 | 19089 ft | 354 kts | 108° |
| 2026-04-10 11:25 | 40.93342 | 2.88755 | 19083 ft | 354 kts | 108° |
| 2026-04-10 11:25 | 40.92561 | 2.91816 | 19082 ft | 354 kts | 108° |
| 2026-04-10 11:26 | 40.91778 | 2.94879 | 19083 ft | 355 kts | 108° |
| 2026-04-10 11:26 | 40.90981 | 2.97988 | 19084 ft | 355 kts | 108° |
| 2026-04-10 11:26 | 40.90194 | 3.01057 | 19083 ft | 355 kts | 108° |
| 2026-04-10 11:26 | 40.89389 | 3.04168 | 19083 ft | 355 kts | 109° |
| 2026-04-10 11:27 | 40.88582 | 3.07257 | 19080 ft | 355 kts | 109° |
| 2026-04-10 11:27 | 40.87780 | 3.10337 | 19079 ft | 355 kts | 108° |
| 2026-04-10 11:27 | 40.86968 | 3.13413 | 19074 ft | 355 kts | 110° |
| 2026-04-10 11:27 | 40.86015 | 3.16409 | 19078 ft | 355 kts | 115° |
| 2026-04-10 11:28 | 40.84879 | 3.19306 | 19087 ft | 355 kts | 119° |
| 2026-04-10 11:28 | 40.83661 | 3.22146 | 19078 ft | 355 kts | 120° |
| 2026-04-10 11:28 | 40.82430 | 3.24985 | 19082 ft | 355 kts | 120° |
| 2026-04-10 11:28 | 40.81199 | 3.27822 | 19077 ft | 355 kts | 120° |
| 2026-04-10 11:29 | 40.79979 | 3.30636 | 19067 ft | 355 kts | 119° |
| 2026-04-10 11:29 | 40.78747 | 3.33480 | 18890 ft | 354 kts | 119° |
| 2026-04-10 11:29 | 40.77532 | 3.36283 | 18637 ft | 352 kts | 119° |
| 2026-04-10 11:29 | 40.76307 | 3.39108 | 18394 ft | 350 kts | 119° |
| 2026-04-10 11:30 | 40.75102 | 3.41889 | 18154 ft | 349 kts | 119° |
| 2026-04-10 11:30 | 40.73913 | 3.44627 | 17934 ft | 347 kts | 119° |
| 2026-04-10 11:30 | 40.72699 | 3.47424 | 17683 ft | 347 kts | 119° |
| 2026-04-10 11:30 | 40.71508 | 3.50164 | 17369 ft | 345 kts | 119° |
| 2026-04-10 11:31 | 40.70310 | 3.52915 | 17030 ft | 343 kts | 119° |
| 2026-04-10 11:31 | 40.69117 | 3.55643 | 16625 ft | 341 kts | 121° |
| 2026-04-10 11:31 | 40.67614 | 3.58027 | 16165 ft | 341 kts | 140° |
| 2026-04-10 11:31 | 40.65702 | 3.59909 | 15699 ft | 341 kts | 145° |
| 2026-04-10 11:32 | 40.63731 | 3.61674 | 15193 ft | 343 kts | 146° |
| 2026-04-10 11:32 | 40.61766 | 3.63457 | 14679 ft | 344 kts | 145° |
| 2026-04-10 11:32 | 40.59789 | 3.65303 | 14171 ft | 346 kts | 144° |
| 2026-04-10 11:32 | 40.57846 | 3.67167 | 13650 ft | 347 kts | 144° |
| 2026-04-10 11:33 | 40.55911 | 3.69051 | 13132 ft | 347 kts | 143° |
| 2026-04-10 11:33 | 40.53964 | 3.70957 | 12639 ft | 346 kts | 143° |
| 2026-04-10 11:33 | 40.52044 | 3.72838 | 12259 ft | 342 kts | 143° |
| 2026-04-10 11:33 | 40.50137 | 3.74707 | 11871 ft | 339 kts | 144° |
| 2026-04-10 11:34 | 40.48268 | 3.76617 | 11447 ft | 337 kts | 140° |
| 2026-04-10 11:34 | 40.46542 | 3.78656 | 10974 ft | 336 kts | 137° |
| 2026-04-10 11:34 | 40.44808 | 3.80772 | 10516 ft | 333 kts | 137° |
| 2026-04-10 11:34 | 40.43133 | 3.82805 | 10263 ft | 327 kts | 137° |
| 2026-04-10 11:35 | 40.41463 | 3.84810 | 9945 ft | 322 kts | 138° |
| 2026-04-10 11:35 | 40.39822 | 3.86762 | 9594 ft | 316 kts | 138° |
| 2026-04-10 11:35 | 40.38197 | 3.88682 | 9194 ft | 305 kts | 138° |
| 2026-04-10 11:35 | 40.36636 | 3.90521 | 8662 ft | 297 kts | 139° |
| 2026-04-10 11:36 | 40.35135 | 3.92286 | 8297 ft | 287 kts | 139° |
| 2026-04-10 11:36 | 40.33654 | 3.94023 | 7977 ft | 282 kts | 139° |
| 2026-04-10 11:36 | 40.32212 | 3.95712 | 7712 ft | 279 kts | 139° |
| 2026-04-10 11:36 | 40.30767 | 3.97403 | 7422 ft | 277 kts | 139° |
| 2026-04-10 11:37 | 40.29332 | 3.99081 | 7118 ft | 274 kts | 139° |
| 2026-04-10 11:37 | 40.27909 | 4.00745 | 6852 ft | 272 kts | 139° |
| 2026-04-10 11:37 | 40.26503 | 4.02387 | 6572 ft | 270 kts | 139° |
| 2026-04-10 11:37 | 40.25116 | 4.04007 | 6257 ft | 268 kts | 139° |
| 2026-04-10 11:38 | 40.23708 | 4.05647 | 5710 ft | 277 kts | 139° |
| 2026-04-10 11:38 | 40.22247 | 4.07348 | 5285 ft | 278 kts | 139° |
| 2026-04-10 11:38 | 40.20809 | 4.09021 | 4949 ft | 276 kts | 138° |
| 2026-04-10 11:38 | 40.19388 | 4.10676 | 4605 ft | 273 kts | 138° |
| 2026-04-10 11:39 | 40.17964 | 4.12332 | 4270 ft | 271 kts | 137° |
| 2026-04-10 11:39 | 40.16560 | 4.13966 | 3928 ft | 269 kts | 137° |
| 2026-04-10 11:39 | 40.15174 | 4.15580 | 3609 ft | 266 kts | 137° |
| 2026-04-10 11:39 | 40.13778 | 4.17200 | 3282 ft | 264 kts | 137° |
| 2026-04-10 11:40 | 40.12434 | 4.18761 | 3094 ft | 255 kts | 136° |
| 2026-04-10 11:40 | 40.11121 | 4.20285 | 2938 ft | 246 kts | 136° |
| 2026-04-10 11:40 | 40.09873 | 4.21735 | 2783 ft | 238 kts | 136° |
| 2026-04-10 11:40 | 40.08648 | 4.23156 | 2635 ft | 230 kts | 136° |
| 2026-04-10 11:41 | 40.07468 | 4.24525 | 2486 ft | 222 kts | 136° |
| 2026-04-10 11:41 | 40.06289 | 4.25738 | 2454 ft | 214 kts | 152° |
| 2026-04-10 11:41 | 40.04845 | 4.26103 | 2458 ft | 214 kts | 186° |
| 2026-04-10 11:41 | 40.03398 | 4.25681 | 2458 ft | 207 kts | 194° |
| 2026-04-10 11:42 | 40.02012 | 4.25205 | 2515 ft | 200 kts | 192° |
| 2026-04-10 11:42 | 40.00716 | 4.24836 | 2539 ft | 182 kts | 189° |
| 2026-04-10 11:42 | 39.99451 | 4.24547 | 2541 ft | 186 kts | 187° |
| 2026-04-10 11:42 | 39.98195 | 4.24292 | 2401 ft | 179 kts | 187° |
| 2026-04-10 11:43 | 39.96958 | 4.24047 | 2164 ft | 175 kts | 186° |
| 2026-04-10 11:43 | 39.96744 | 4.24004 | 2122 ft | 174 kts | 186° |
| 2026-04-10 11:43 | 39.95666 | 4.23787 | 1914 ft | 170 kts | 186° |
| 2026-04-10 11:44 | 39.94516 | 4.23553 | 1693 ft | 160 kts | 187° |
| 2026-04-10 11:44 | 39.93452 | 4.23335 | 1502 ft | 149 kts | 187° |
| 2026-04-10 11:44 | 39.92458 | 4.23132 | 1305 ft | 141 kts | 187° |
| 2026-04-10 11:44 | 39.91497 | 4.22937 | 1134 ft | 139 kts | 188° |
| 2026-04-10 11:45 | 39.90528 | 4.22740 | 955 ft | 138 kts | 188° |
| 2026-04-10 11:45 | 39.89577 | 4.22550 | 772 ft | 137 kts | 188° |
| 2026-04-10 11:45 | 39.88638 | 4.22360 | 598 ft | 137 kts | 190° |
| 2026-04-10 11:45 | 39.87688 | 4.22161 | 417 ft | 137 kts | 190° |
| 2026-04-10 11:46 | 39.86752 | 4.21969 | 292 ft | 129 kts | 190° |
| 2026-04-10 11:46 | 39.85996 | 4.21810 | 285 ft | 85 kts | 190° |
| 2026-04-10 11:46 | 39.85619 | 4.21760 | 278 ft | 28 kts | 172° |
| 2026-04-10 11:46 | 39.85497 | 4.21803 | 275 ft | 16 kts | 159° |
| 2026-04-10 11:47 | 39.85399 | 4.21877 | 272 ft | 17 kts | 101° |
| 2026-04-10 11:47 | 39.85486 | 4.21945 | 273 ft | 16 kts | 8° |
| 2026-04-10 11:47 | 39.85606 | 4.21969 | 275 ft | 17 kts | 8° |
| 2026-04-10 11:47 | 39.85722 | 4.21993 | 277 ft | 16 kts | 8° |
| 2026-04-10 11:48 | 39.85835 | 4.22016 | 278 ft | 16 kts | 9° |
| 2026-04-10 11:48 | 39.85949 | 4.22039 | 280 ft | 16 kts | 8° |
| 2026-04-10 11:48 | 39.86068 | 4.22063 | 279 ft | 18 kts | 9° |
| 2026-04-10 11:48 | 39.86173 | 4.22086 | 279 ft | 10 kts | 15° |
| 2026-04-10 11:49 | 39.86189 | 4.22162 | 276 ft | 10 kts | 99° |
| 2026-04-10 11:49 | 39.86200 | 4.22261 | 274 ft | 12 kts | 27° |
| 2026-04-10 11:49 | 39.86290 | 4.22280 | 274 ft | 13 kts | 8° |
| 2026-04-10 11:49 | 39.86382 | 4.22299 | 274 ft | 13 kts | 9° |
| 2026-04-10 11:50 | 39.86431 | 4.22310 | 275 ft | 0 kts | 21° |
| 2026-04-10 11:50 | 39.86434 | 4.22318 | 275 ft | 1 kts | 72° |
| 2026-04-10 11:50 | 39.86431 | 4.22352 | 274 ft | 5 kts | 101° |
| 2026-04-10 11:50 | 39.86426 | 4.22384 | 273 ft | 3 kts | 100° |
| 2026-04-10 11:51 | 39.86424 | 4.22398 | 273 ft | 0 kts | 99° |